Time;durP1;ratioP1;P1;durP2;ratioP2;P2;SDS_P1;SDS_P2;PMS_P1;PMS_P2;Temp;Humidity;BMP_temperature;BMP_pressure;BME280_temperature;BME280_humidity;BME280_pressure;Samples;Min_cycle;Max_cycle;Signal;HPM_P1;HPM_P2
2024/04/18 04:03:48;;;;;;;0.90;0.80;;;5.00;97.30;;;;;;5271992;27;20549;-87
2024/04/18 04:13:04;;;;;;;1.23;1.13;;;4.90;97.30;;;;;;5236862;27;20563;-84
2024/04/18 04:16:37;;;;;;;;;;;;;;;;;;;;;
2024/04/18 04:20:16;;;;;;;1.00;0.90;;;4.80;97.30;;;;;;5175133;27;20464;-87
2024/04/18 04:27:05;;;;;;;1.50;1.40;;;4.70;97.30;;;;;;5011951;28;20503;-85
2024/04/18 04:29:36;;;;;;;1.10;1.00;;;4.70;97.30;;;;;;4957830;28;20542;-88
2024/04/18 04:39:05;;;;;;;1.07;0.97;;;4.70;97.30;;;;;;4948845;28;20598;-88
2024/04/18 04:41:31;;;;;;;1.03;0.93;;;4.80;97.30;;;;;;5144343;21;20509;-69
2024/04/18 04:43:56;;;;;;;1.00;0.90;;;4.80;97.30;;;;;;5350230;26;21006;-69
2024/04/18 04:46:22;;;;;;;1.53;1.43;;;4.80;97.30;;;;;;5342652;26;20277;-69
2024/04/18 04:48:47;;;;;;;1.40;1.30;;;4.80;97.30;;;;;;5348130;26;20268;-70
2024/04/18 04:51:14;;;;;;;0.90;0.80;;;4.80;97.30;;;;;;5348659;26;20310;-69
2024/04/18 04:53:40;;;;;;;1.20;1.10;;;4.80;97.30;;;;;;5354047;26;20231;-70
2024/04/18 04:56:07;;;;;;;1.67;1.57;;;4.80;97.30;;;;;;5366557;26;20650;-70
2024/04/18 04:58:33;;;;;;;1.17;1.07;;;4.90;97.30;;;;;;5354646;26;22457;-70
2024/04/18 05:00:58;;;;;;;1.30;1.20;;;4.90;97.30;;;;;;5348173;26;20514;-70
2024/04/18 05:03:24;;;;;;;1.00;0.90;;;5.00;97.30;;;;;;5366482;26;20685;-70
2024/04/18 05:05:49;;;;;;;1.10;1.00;;;5.00;97.30;;;;;;5335900;26;20253;-70
2024/04/18 05:08:17;;;;;;;1.10;1.00;;;5.00;97.30;;;;;;5344356;26;20254;-69
2024/04/18 05:10:44;;;;;;;1.30;1.20;;;5.10;97.30;;;;;;5349793;26;20239;-70
2024/04/18 05:13:12;;;;;;;1.00;0.90;;;5.10;97.30;;;;;;5340563;26;20517;-69
2024/04/18 05:15:37;;;;;;;1.10;1.00;;;5.10;97.30;;;;;;5354808;26;20522;-68
2024/04/18 05:18:09;;;;;;;2.27;1.83;;;5.10;97.30;;;;;;5365191;26;20480;-70
2024/04/18 05:20:37;;;;;;;1.10;1.00;;;5.10;97.30;;;;;;5340064;26;21767;-69
2024/04/18 05:23:04;;;;;;;1.07;0.97;;;5.10;97.30;;;;;;5351003;26;20580;-69
2024/04/18 05:25:29;;;;;;;1.23;1.13;;;5.20;97.30;;;;;;5341230;26;20925;-69
2024/04/18 05:28:03;;;;;;;1.27;1.17;;;5.30;97.30;;;;;;5348082;26;20484;-69
2024/04/18 05:33:13;;;;;;;1.50;1.40;;;5.40;97.30;;;;;;5360875;26;20514;-69
2024/04/18 05:35:39;;;;;;;1.10;1.00;;;5.40;97.30;;;;;;5353352;26;20525;-69
2024/04/18 05:38:04;;;;;;;1.27;1.17;;;5.50;97.30;;;;;;5329217;26;20466;-68
2024/04/18 05:40:30;;;;;;;1.07;0.97;;;5.60;97.30;;;;;;5334831;26;20269;-68
2024/04/18 05:42:55;;;;;;;1.47;1.37;;;5.60;97.30;;;;;;5337027;26;20601;-68
2024/04/18 05:45:21;;;;;;;1.20;1.10;;;5.80;97.30;;;;;;5329073;26;20244;-66
2024/04/18 05:47:46;;;;;;;2.13;1.97;;;5.90;97.30;;;;;;5326495;26;20234;-67
2024/04/18 05:50:12;;;;;;;1.07;0.97;;;6.00;97.30;;;;;;5327184;26;20285;-67
2024/04/18 05:52:37;;;;;;;1.37;1.27;;;6.00;97.30;;;;;;5326894;26;20337;-68
2024/04/18 05:55:04;;;;;;;1.53;1.43;;;6.10;97.30;;;;;;5332061;26;20727;-68
2024/04/18 05:57:30;;;;;;;1.93;1.83;;;6.10;97.30;;;;;;5349972;26;20549;-68
2024/04/18 05:59:55;;;;;;;1.10;1.00;;;6.10;97.30;;;;;;5342791;26;20480;-69
2024/04/18 06:02:21;;;;;;;2.20;1.63;;;6.10;97.30;;;;;;5318633;26;20240;-68
2024/04/18 06:04:47;;;;;;;1.57;1.47;;;6.20;97.30;;;;;;5326290;26;20242;-67
2024/04/18 06:07:12;;;;;;;1.90;1.63;;;6.20;97.30;;;;;;5334544;26;20231;-68
2024/04/18 06:09:38;;;;;;;1.80;1.70;;;6.30;97.30;;;;;;5334514;26;20595;-68
2024/04/18 06:12:04;;;;;;;1.07;0.97;;;6.30;97.30;;;;;;5326916;26;20739;-67
2024/04/18 06:14:29;;;;;;;5.70;3.13;;;6.40;97.30;;;;;;5322785;26;20228;-67
2024/04/18 06:16:55;;;;;;;1.40;1.40;;;6.40;97.30;;;;;;5329438;26;20819;-67
2024/04/18 06:19:20;;;;;;;1.87;1.60;;;6.50;97.30;;;;;;5334795;26;20236;-68
2024/04/18 06:21:45;;;;;;;1.00;0.90;;;6.50;97.30;;;;;;5319741;26;20239;-66
2024/04/18 06:24:11;;;;;;;0.90;0.80;;;6.40;97.30;;;;;;5316287;26;20983;-65
2024/04/18 06:26:38;;;;;;;1.87;1.60;;;6.40;97.30;;;;;;5344188;26;20236;-68
2024/04/18 06:29:03;;;;;;;1.90;1.80;;;6.40;97.30;;;;;;5314477;26;20275;-68
2024/04/18 06:31:29;;;;;;;1.40;1.30;;;6.40;97.30;;;;;;5319069;26;20598;-69
2024/04/18 06:33:54;;;;;;;1.33;1.23;;;6.40;97.30;;;;;;5333139;26;20278;-68
2024/04/18 06:36:20;;;;;;;3.27;1.63;;;6.50;97.30;;;;;;5318899;26;20279;-67
2024/04/18 06:38:45;;;;;;;5.10;1.87;;;6.50;97.30;;;;;;5334748;26;20226;-68
2024/04/18 06:41:11;;;;;;;2.13;1.97;;;6.60;97.30;;;;;;5313328;26;20291;-67
2024/04/18 06:43:36;;;;;;;1.43;1.33;;;6.70;97.30;;;;;;5333635;26;20632;-67
2024/04/18 06:46:02;;;;;;;2.83;1.47;;;6.60;97.30;;;;;;5326864;26;20239;-67
2024/04/18 06:48:28;;;;;;;1.70;1.23;;;6.60;97.30;;;;;;5326550;26;20778;-67
2024/04/18 06:50:54;;;;;;;1.53;1.43;;;6.60;97.30;;;;;;5331199;26;20621;-67
2024/04/18 06:53:19;;;;;;;3.20;3.00;;;6.60;97.30;;;;;;5321568;26;20689;-67
2024/04/18 06:55:45;;;;;;;3.63;1.33;;;6.70;97.30;;;;;;5329424;26;20689;-66
2024/04/18 06:58:10;;;;;;;2.50;1.73;;;6.80;97.30;;;;;;5329062;26;20252;-68
2024/04/18 07:00:37;;;;;;;1.10;1.00;;;6.90;97.30;;;;;;5320143;26;20732;-66
2024/04/18 07:03:07;;;;;;;1.27;1.20;;;7.00;97.30;;;;;;5338429;26;20300;-68
2024/04/18 07:05:33;;;;;;;2.40;1.07;;;7.00;97.30;;;;;;5321824;26;20470;-66
2024/04/18 07:07:58;;;;;;;1.53;1.50;;;7.10;97.30;;;;;;5337010;26;21051;-67
2024/04/18 07:10:24;;;;;;;9.07;1.70;;;7.10;97.30;;;;;;5333450;26;20261;-67
2024/04/18 07:12:49;;;;;;;1.63;1.47;;;7.10;97.30;;;;;;5322357;26;20885;-67
2024/04/18 07:15:15;;;;;;;1.60;1.50;;;7.10;97.30;;;;;;5336172;26;20234;-68
2024/04/18 07:17:42;;;;;;;1.33;1.27;;;7.20;97.30;;;;;;5333742;26;20265;-66
2024/04/18 07:20:09;;;;;;;1.37;1.27;;;7.30;97.30;;;;;;5328137;26;20693;-66
2024/04/18 07:22:37;;;;;;;1.53;1.43;;;7.30;97.30;;;;;;5328574;26;20471;-67
2024/04/18 07:25:06;;;;;;;3.23;1.63;;;7.20;97.30;;;;;;5322849;26;20864;-69
2024/04/18 07:27:31;;;;;;;2.30;2.10;;;7.20;97.30;;;;;;5337190;26;20852;-67
2024/04/18 07:29:57;;;;;;;1.50;1.40;;;7.10;97.30;;;;;;5319730;26;20522;-66
2024/04/18 07:32:22;;;;;;;2.23;1.73;;;6.90;97.30;;;;;;5317402;26;20282;-67
2024/04/18 07:34:48;;;;;;;1.70;1.60;;;6.80;97.30;;;;;;5314427;26;20235;-68
2024/04/18 07:37:13;;;;;;;2.00;1.63;;;6.80;97.30;;;;;;5322477;26;20282;-70
2024/04/18 07:39:40;;;;;;;1.20;1.10;;;7.00;97.30;;;;;;5332411;26;20270;-68
2024/04/18 07:42:06;;;;;;;2.00;1.73;;;7.10;97.30;;;;;;5316583;26;20240;-66
2024/04/18 07:44:31;;;;;;;1.77;1.67;;;7.20;97.30;;;;;;5344451;26;20581;-67
2024/04/18 07:46:57;;;;;;;3.70;2.57;;;7.30;97.30;;;;;;5327900;26;20279;-67
2024/04/18 07:49:23;;;;;;;1.33;1.23;;;7.30;97.30;;;;;;5331020;26;20274;-67
2024/04/18 07:51:48;;;;;;;1.20;1.10;;;7.50;97.30;;;;;;5334965;26;20239;-68
2024/04/18 07:54:15;;;;;;;1.20;1.10;;;7.70;97.30;;;;;;5335695;26;20710;-62
2024/04/18 07:56:41;;;;;;;2.77;2.57;;;7.90;97.30;;;;;;5351122;26;20261;-68
2024/04/18 07:59:08;;;;;;;2.23;2.03;;;8.00;97.30;;;;;;5337887;26;21016;-65
2024/04/18 08:01:35;;;;;;;1.30;1.20;;;7.80;97.30;;;;;;5350584;26;20242;-68
2024/04/18 08:04:01;;;;;;;1.70;1.60;;;7.70;97.30;;;;;;5346343;26;21075;-69
2024/04/18 08:06:26;;;;;;;2.60;1.13;;;7.70;97.30;;;;;;5371108;26;20488;-68
2024/04/18 08:08:52;;;;;;;3.17;1.30;;;7.70;97.30;;;;;;5342329;26;20514;-66
2024/04/18 08:11:17;;;;;;;1.23;1.13;;;7.90;97.30;;;;;;5351204;26;20410;-67
2024/04/18 08:13:43;;;;;;;7.50;2.70;;;8.10;97.30;;;;;;5370721;26;20234;-67
2024/04/18 08:16:09;;;;;;;1.10;1.00;;;8.30;97.30;;;;;;5369177;26;20235;-67
2024/04/18 08:18:35;;;;;;;1.17;1.00;;;8.40;97.30;;;;;;5341552;26;20277;-68
2024/04/18 08:21:00;;;;;;;1.10;1.00;;;8.50;97.00;;;;;;5339714;26;20902;-67
2024/04/18 08:23:26;;;;;;;2.23;2.03;;;8.70;97.10;;;;;;5354229;26;20238;-68
2024/04/18 08:25:51;;;;;;;5.13;1.50;;;8.90;96.80;;;;;;5337401;26;20766;-68
2024/04/18 08:28:17;;;;;;;1.17;1.07;;;9.10;96.90;;;;;;5350323;26;20245;-68
2024/04/18 08:30:44;;;;;;;1.10;1.00;;;9.10;97.30;;;;;;5357960;26;20257;-68
2024/04/18 08:33:09;;;;;;;1.37;1.27;;;9.30;97.30;;;;;;5341628;26;20339;-68
2024/04/18 08:35:35;;;;;;;3.70;1.93;;;9.40;96.30;;;;;;5353521;26;20483;-69
2024/04/18 08:38:01;;;;;;;1.20;1.10;;;9.30;95.50;;;;;;5339866;26;20321;-68
2024/04/18 08:40:26;;;;;;;0.93;0.90;;;9.10;94.90;;;;;;5338988;26;20281;-66
2024/04/18 08:42:52;;;;;;;1.23;1.13;;;8.90;94.50;;;;;;5355634;26;20621;-67
2024/04/18 08:45:23;;;;;;;1.53;1.43;;;8.70;93.10;;;;;;5351198;26;20296;-68
2024/04/18 08:47:50;;;;;;;1.17;1.07;;;8.50;93.00;;;;;;5356725;26;20226;-68
2024/04/18 08:50:16;;;;;;;3.33;2.73;;;8.40;93.10;;;;;;5351970;26;20524;-68
2024/04/18 08:52:44;;;;;;;1.00;0.90;;;8.50;93.50;;;;;;5359082;26;20576;-68
2024/04/18 08:55:10;;;;;;;0.83;0.80;;;8.80;93.40;;;;;;5341448;26;20466;-67
2024/04/18 08:58:01;;;;;;;1.10;1.00;;;8.90;93.70;;;;;;5334718;26;20573;-67
2024/04/18 09:00:28;;;;;;;15.63;2.90;;;8.90;93.30;;;;;;5367103;26;21031;-67
2024/04/18 09:02:54;;;;;;;1.47;1.37;;;9.10;93.30;;;;;;5374253;26;20512;-68
2024/04/18 09:05:20;;;;;;;1.33;1.20;;;9.50;93.00;;;;;;5360451;26;20560;-68
2024/04/18 09:07:45;;;;;;;1.10;1.00;;;9.80;91.60;;;;;;5361640;26;20474;-68
2024/04/18 09:10:11;;;;;;;4.10;2.23;;;9.90;89.70;;;;;;5349965;26;20249;-68
2024/04/18 09:12:37;;;;;;;4.70;1.57;;;10.20;90.80;;;;;;5373401;26;20309;-68
2024/04/18 09:15:04;;;;;;;1.57;1.33;;;10.30;88.30;;;;;;5336963;26;20419;-65
2024/04/18 09:17:30;;;;;;;1.17;1.00;;;10.30;89.20;;;;;;5354556;26;20227;-67
2024/04/18 09:19:55;;;;;;;1.37;1.07;;;10.00;88.70;;;;;;5353123;26;20500;-68
2024/04/18 09:22:21;;;;;;;2.03;1.10;;;9.60;89.40;;;;;;5352394;26;20234;-68
2024/04/18 09:24:46;;;;;;;1.13;1.03;;;9.50;90.00;;;;;;5337496;26;20269;-66
2024/04/18 09:27:15;;;;;;;1.00;0.90;;;9.40;90.80;;;;;;5340839;26;20336;-67
2024/04/18 09:29:44;;;;;;;1.73;1.63;;;9.30;88.50;;;;;;5354868;26;20238;-68
2024/04/18 09:32:14;;;;;;;1.73;1.63;;;9.20;89.80;;;;;;5340674;26;20461;-67
2024/04/18 09:34:47;;;;;;;1.30;1.30;;;9.00;88.60;;;;;;5325038;26;20464;-68
2024/04/18 09:37:14;;;;;;;0.90;0.80;;;8.90;89.90;;;;;;5336694;26;20988;-68
2024/04/18 09:39:43;;;;;;;0.80;0.70;;;8.90;91.20;;;;;;5350076;26;20479;-68
2024/04/18 09:42:16;;;;;;;1.00;0.87;;;9.00;89.80;;;;;;5340066;26;20485;-67
2024/04/18 09:44:52;;;;;;;1.40;1.30;;;9.10;89.70;;;;;;5371090;26;20535;-68
2024/04/18 09:47:19;;;;;;;0.70;0.70;;;9.50;89.90;;;;;;5363048;26;21008;-67
2024/04/18 09:49:46;;;;;;;0.80;0.70;;;9.90;89.00;;;;;;5339846;26;20588;-67
2024/04/18 09:52:13;;;;;;;0.80;0.70;;;10.20;88.00;;;;;;5347529;26;20995;-67
2024/04/18 09:54:40;;;;;;;0.90;0.80;;;10.40;87.20;;;;;;5358339;26;20566;-66
2024/04/18 09:57:06;;;;;;;1.73;1.63;;;10.30;86.20;;;;;;5373398;26;20464;-67
2024/04/18 09:59:33;;;;;;;0.80;0.80;;;10.50;86.80;;;;;;5345133;26;20530;-67
2024/04/18 10:02:00;;;;;;;1.60;1.50;;;10.50;85.40;;;;;;5354631;26;20513;-67
2024/04/18 10:04:27;;;;;;;0.80;0.70;;;10.50;85.20;;;;;;5366689;26;20464;-67
2024/04/18 10:06:53;;;;;;;0.90;0.80;;;10.60;86.70;;;;;;5345542;26;20481;-68
2024/04/18 10:09:22;;;;;;;0.90;0.80;;;10.70;84.70;;;;;;5360359;26;20574;-66
2024/04/18 10:11:49;;;;;;;1.10;1.00;;;10.90;85.40;;;;;;5342902;26;21121;-67
2024/04/18 10:14:14;;;;;;;0.90;0.80;;;11.20;84.80;;;;;;5344278;21;20489;-86
2024/04/18 10:16:48;;;;;;;1.53;1.20;;;11.20;85.00;;;;;;5297315;26;20467;-85
2024/04/18 10:19:21;;;;;;;1.17;1.07;;;11.10;84.00;;;;;;5295486;27;20707;-88
2024/04/18 10:21:57;;;;;;;0.90;0.80;;;10.90;85.30;;;;;;5303418;27;20528;-86
2024/04/18 10:24:30;;;;;;;1.30;1.20;;;10.70;85.20;;;;;;5298507;26;20525;-88
2024/04/18 10:29:25;;;;;;;0.90;0.80;;;10.30;86.50;;;;;;5335538;26;20895;-65
2024/04/18 10:31:51;;;;;;;1.20;1.10;;;10.10;85.30;;;;;;5310958;26;20522;-66
2024/04/18 10:34:20;;;;;;;0.90;0.80;;;9.90;85.90;;;;;;5276110;27;20471;-66
2024/04/18 10:36:46;;;;;;;1.17;1.07;;;9.70;87.20;;;;;;5274615;27;20236;-65
2024/04/18 10:39:28;;;;;;;0.90;0.80;;;9.70;87.70;;;;;;5276266;27;20560;-66
2024/04/18 10:41:58;;;;;;;1.20;1.10;;;9.80;88.30;;;;;;5304740;26;20361;-65
2024/04/18 10:44:25;;;;;;;0.80;0.80;;;9.90;88.80;;;;;;5305569;27;20471;-66
2024/04/18 10:46:54;;;;;;;0.77;0.70;;;10.10;87.10;;;;;;5304761;27;20463;-66
2024/04/18 10:49:21;;;;;;;0.90;0.80;;;10.30;87.50;;;;;;5305375;27;20459;-68
2024/04/18 10:51:47;;;;;;;0.93;0.83;;;10.80;88.60;;;;;;5274492;27;20487;-64
2024/04/18 10:54:14;;;;;;;0.90;0.80;;;11.10;87.40;;;;;;5305197;27;20459;-63
2024/04/18 10:56:40;;;;;;;1.30;1.20;;;11.20;84.60;;;;;;5274887;27;20482;-64
2024/04/18 10:59:07;;;;;;;0.77;0.70;;;11.00;83.00;;;;;;5274491;27;20462;-65
2024/04/18 11:01:37;;;;;;;1.30;1.20;;;10.80;83.00;;;;;;5274521;27;20303;-63
2024/04/18 11:04:03;;;;;;;1.00;0.90;;;10.70;83.50;;;;;;5304388;27;20551;-63
2024/04/18 11:06:29;;;;;;;0.90;0.80;;;10.50;83.00;;;;;;5304643;27;20475;-65
2024/04/18 11:08:55;;;;;;;1.03;0.93;;;10.40;83.90;;;;;;5274348;27;20482;-65
2024/04/18 11:11:26;;;;;;;1.00;0.90;;;10.30;86.10;;;;;;5302956;27;20248;-62
2024/04/18 11:13:54;;;;;;;1.20;1.10;;;10.20;82.70;;;;;;5304302;27;20503;-64
2024/04/18 11:16:20;;;;;;;1.03;0.93;;;10.00;82.60;;;;;;5304331;27;20463;-66
2024/04/18 11:18:45;;;;;;;0.90;0.87;;;10.20;86.60;;;;;;5303018;27;20471;-65
2024/04/18 11:21:14;;;;;;;1.27;1.17;;;10.40;83.10;;;;;;5304182;27;20279;-65
2024/04/18 11:23:40;;;;;;;1.47;1.37;;;10.90;82.90;;;;;;5304264;27;20270;-65
2024/04/18 11:26:05;;;;;;;1.10;1.00;;;11.30;80.40;;;;;;5274053;27;20467;-65
2024/04/18 11:28:31;;;;;;;0.83;0.83;;;11.60;79.90;;;;;;5303987;27;20240;-65
2024/04/18 11:30:58;;;;;;;1.00;0.90;;;11.80;80.90;;;;;;5302013;26;20275;-65
2024/04/18 11:33:23;;;;;;;1.10;1.03;;;12.00;81.50;;;;;;5304407;27;20515;-65
2024/04/18 11:35:50;;;;;;;1.13;1.03;;;12.30;79.00;;;;;;5268685;27;20991;-64
2024/04/18 11:38:16;;;;;;;1.50;1.40;;;12.40;77.50;;;;;;5274169;27;20271;-65
2024/04/18 11:40:42;;;;;;;1.10;1.00;;;12.50;76.60;;;;;;5303450;27;20472;-64
2024/04/18 11:43:08;;;;;;;1.33;1.23;;;12.60;77.00;;;;;;5293710;27;20535;-64
2024/04/18 11:45:33;;;;;;;0.90;0.80;;;13.00;81.60;;;;;;5296269;27;20283;-64
2024/04/18 11:47:59;;;;;;;1.27;1.27;;;13.00;78.20;;;;;;5288543;27;20338;-65
2024/04/18 11:50:27;;;;;;;0.90;0.80;;;13.00;78.70;;;;;;5307087;26;20338;-65
2024/04/18 11:52:53;;;;;;;0.90;0.80;;;12.90;79.60;;;;;;5305768;27;20295;-64
2024/04/18 11:55:18;;;;;;;0.90;0.80;;;12.70;77.90;;;;;;5279331;27;20517;-65
2024/04/18 11:57:44;;;;;;;3.23;2.03;;;12.60;77.90;;;;;;5276308;27;21007;-65
2024/04/18 12:00:10;;;;;;;1.00;0.90;;;12.20;78.00;;;;;;5306721;26;20243;-66
2024/04/18 12:02:35;;;;;;;0.90;0.80;;;11.90;79.10;;;;;;5307185;27;20232;-65
2024/04/18 12:05:01;;;;;;;1.23;1.17;;;11.80;80.50;;;;;;5277424;27;20652;-67
2024/04/18 12:07:26;;;;;;;0.73;0.70;;;11.70;80.20;;;;;;5290782;27;20261;-65
2024/04/18 12:09:54;;;;;;;1.30;1.20;;;11.80;82.30;;;;;;5306258;27;20233;-62
2024/04/18 12:12:20;;;;;;;1.57;1.37;;;12.30;83.10;;;;;;5307283;26;20353;-65
2024/04/18 12:14:49;;;;;;;1.07;1.00;;;12.50;78.20;;;;;;5276118;27;20860;-66
2024/04/18 12:17:18;;;;;;;0.90;0.80;;;12.90;77.70;;;;;;5307038;26;20232;-60
2024/04/18 12:19:43;;;;;;;0.70;0.70;;;13.10;77.40;;;;;;5276278;27;20915;-63
2024/04/18 12:22:15;;;;;;;0.70;0.70;;;13.10;77.00;;;;;;5303220;26;20471;-63
2024/04/18 12:24:41;;;;;;;0.97;0.80;;;13.30;77.20;;;;;;5306660;27;20267;-62
2024/04/18 12:27:07;;;;;;;0.90;0.90;;;13.40;74.80;;;;;;5289231;27;20901;-63
2024/04/18 12:29:32;;;;;;;1.00;0.90;;;13.50;74.60;;;;;;5281410;27;20529;-61
2024/04/18 12:31:59;;;;;;;0.90;0.80;;;13.60;73.70;;;;;;5278061;27;20275;-63
2024/04/18 12:34:25;;;;;;;1.47;1.03;;;13.90;75.40;;;;;;5306250;27;20275;-63
2024/04/18 12:36:51;;;;;;;1.00;0.90;;;14.40;75.90;;;;;;5279884;27;21061;-62
2024/04/18 12:39:17;;;;;;;1.00;0.90;;;14.40;72.00;;;;;;5269325;27;20954;-67
2024/04/18 12:41:43;;;;;;;0.90;0.80;;;14.10;74.80;;;;;;5306361;26;20283;-64
2024/04/18 12:44:09;;;;;;;0.90;0.80;;;14.00;76.60;;;;;;5275858;27;20240;-67
2024/04/18 12:46:35;;;;;;;1.03;0.93;;;13.80;77.40;;;;;;5306304;27;20228;-62
2024/04/18 12:49:00;;;;;;;1.80;1.63;;;13.70;74.90;;;;;;5305676;26;20578;-66
2024/04/18 12:51:26;;;;;;;0.90;0.80;;;13.20;74.80;;;;;;5288996;26;20490;-65
2024/04/18 12:53:52;;;;;;;1.10;1.00;;;13.00;75.10;;;;;;5303425;27;20291;-67
2024/04/18 12:56:18;;;;;;;0.90;0.80;;;12.80;74.90;;;;;;5275711;27;20248;-64
2024/04/18 12:58:44;;;;;;;0.90;0.80;;;12.60;75.10;;;;;;5276019;27;20270;-66
2024/04/18 13:01:11;;;;;;;0.70;0.70;;;12.50;75.60;;;;;;5304507;26;20475;-65
2024/04/18 13:03:36;;;;;;;1.00;0.90;;;12.50;75.50;;;;;;5305762;27;20542;-67
2024/04/18 13:06:02;;;;;;;0.90;0.80;;;12.30;75.60;;;;;;5305298;27;20486;-66
2024/04/18 13:08:28;;;;;;;1.30;1.20;;;12.30;77.10;;;;;;5306304;27;20242;-67
2024/04/18 13:10:53;;;;;;;0.90;0.80;;;12.20;78.40;;;;;;5305813;26;21134;-67
2024/04/18 13:13:19;;;;;;;1.00;0.90;;;12.10;77.60;;;;;;5277337;27;20736;-67
2024/04/18 13:15:44;;;;;;;0.83;0.77;;;12.00;78.10;;;;;;5305666;26;20731;-67
2024/04/18 13:18:10;;;;;;;0.70;0.70;;;11.80;77.80;;;;;;5275580;27;20239;-69
2024/04/18 13:20:35;;;;;;;0.70;0.70;;;11.60;79.10;;;;;;5283109;27;20246;-67
2024/04/18 13:23:01;;;;;;;1.20;1.10;;;11.40;77.80;;;;;;5299008;27;20275;-67
2024/04/18 13:25:26;;;;;;;1.73;1.63;;;11.40;77.90;;;;;;5305894;27;20255;-65
2024/04/18 13:27:53;;;;;;;0.73;0.70;;;11.30;78.20;;;;;;5275563;27;20240;-64
2024/04/18 13:30:19;;;;;;;0.90;0.80;;;11.80;77.40;;;;;;5305268;26;20727;-67
2024/04/18 13:32:44;;;;;;;0.90;0.80;;;12.50;77.00;;;;;;5275543;27;20583;-68
2024/04/18 13:35:10;;;;;;;1.00;0.90;;;13.10;75.50;;;;;;5301997;26;20232;-68
2024/04/18 13:37:36;;;;;;;1.00;0.90;;;13.40;73.40;;;;;;5278918;27;20289;-67
2024/04/18 13:40:02;;;;;;;0.90;0.80;;;13.60;73.80;;;;;;5304522;27;20224;-64
2024/04/18 13:42:28;;;;;;;0.90;0.80;;;13.80;73.60;;;;;;5319485;26;20459;-68
2024/04/18 13:44:54;;;;;;;1.10;1.00;;;14.00;73.50;;;;;;5278431;27;20983;-68
2024/04/18 13:47:19;;;;;;;2.90;0.80;;;14.00;73.10;;;;;;5305882;27;20228;-63
2024/04/18 13:49:45;;;;;;;0.80;0.80;;;14.20;72.80;;;;;;5287309;27;20318;-65
2024/04/18 13:52:10;;;;;;;0.83;0.77;;;14.10;71.30;;;;;;5285335;27;20710;-66
2024/04/18 13:54:36;;;;;;;1.00;0.90;;;14.10;72.00;;;;;;5305744;27;20709;-63
2024/04/18 13:57:05;;;;;;;0.70;0.70;;;14.10;72.50;;;;;;5286811;27;20262;-67
2024/04/18 13:59:31;;;;;;;0.90;0.80;;;13.80;72.10;;;;;;5284085;27;20244;-68
2024/04/18 14:01:56;;;;;;;0.70;0.70;;;13.80;73.60;;;;;;5284312;27;20543;-67
2024/04/18 14:04:22;;;;;;;1.07;0.97;;;13.80;74.90;;;;;;5305546;26;20279;-67
2024/04/18 14:06:47;;;;;;;0.90;0.80;;;14.30;75.80;;;;;;5273354;27;20282;-66
2024/04/18 14:09:13;;;;;;;0.90;0.80;;;14.80;70.10;;;;;;5300690;27;20721;-64
2024/04/18 14:11:39;;;;;;;0.90;0.80;;;15.20;68.80;;;;;;5275880;27;20240;-65
2024/04/18 14:14:06;;;;;;;0.70;0.70;;;15.30;69.90;;;;;;5286417;27;20341;-68
2024/04/18 14:19:17;;;;;;;0.90;0.80;;;14.90;70.30;;;;;;5304400;27;20515;-63
2024/04/18 14:21:43;;;;;;;1.20;1.10;;;14.30;71.00;;;;;;5304415;26;20467;-66
2024/04/18 14:24:10;;;;;;;0.70;0.70;;;13.90;72.30;;;;;;5304961;27;20467;-67
2024/04/18 14:26:36;;;;;;;0.90;0.80;;;13.70;72.80;;;;;;5276498;27;20872;-67
2024/04/18 14:29:02;;;;;;;0.90;0.80;;;13.60;73.80;;;;;;5306508;26;20495;-66
2024/04/18 14:31:27;;;;;;;0.90;0.90;;;13.40;72.90;;;;;;5306889;26;20362;-68
2024/04/18 14:33:55;;;;;;;0.77;0.73;;;13.30;73.40;;;;;;5306831;27;20295;-65
2024/04/18 14:36:21;;;;;;;7.13;2.40;;;13.70;72.80;;;;;;5266112;27;20239;-62
2024/04/18 14:38:46;;;;;;;0.90;0.80;;;14.30;72.20;;;;;;5306741;27;20515;-67
2024/04/18 14:41:12;;;;;;;0.97;0.87;;;14.50;71.50;;;;;;5304293;26;20243;-67
2024/04/18 14:43:37;;;;;;;1.00;0.90;;;15.20;69.80;;;;;;5282133;27;20321;-66
2024/04/18 14:46:03;;;;;;;0.80;0.73;;;15.80;68.50;;;;;;5305038;27;20287;-66
2024/04/18 14:48:28;;;;;;;1.50;0.93;;;16.40;68.80;;;;;;5284099;27;20251;-67
2024/04/18 14:50:54;;;;;;;1.07;0.97;;;16.40;68.10;;;;;;5304438;26;20759;-66
2024/04/18 14:53:20;;;;;;;0.70;0.70;;;16.30;67.00;;;;;;5285928;27;20240;-67
2024/04/18 14:55:45;;;;;;;0.90;0.80;;;16.00;68.00;;;;;;5304705;27;20747;-67
2024/04/18 14:58:12;;;;;;;0.80;0.80;;;15.70;69.80;;;;;;5304537;27;20374;-68
2024/04/18 15:00:37;;;;;;;1.97;1.87;;;15.00;71.50;;;;;;5274711;27;20272;-68
2024/04/18 15:03:04;;;;;;;1.40;1.20;;;14.30;71.20;;;;;;5284941;27;20554;-67
2024/04/18 15:05:30;;;;;;;0.70;0.70;;;14.60;71.40;;;;;;5305221;27;20254;-67
2024/04/18 15:07:57;;;;;;;1.17;1.07;;;15.30;69.60;;;;;;5283079;27;20520;-66
2024/04/18 15:10:24;;;;;;;0.90;0.80;;;16.10;69.20;;;;;;5304917;26;20471;-69
2024/04/18 15:12:50;;;;;;;1.03;0.93;;;16.70;66.60;;;;;;5304819;26;20463;-65
2024/04/18 15:15:15;;;;;;;1.17;1.07;;;16.60;66.40;;;;;;5304876;27;20540;-64
2024/04/18 15:17:41;;;;;;;1.17;0.90;;;15.70;66.00;;;;;;5274573;27;20407;-66
2024/04/18 15:20:07;;;;;;;3.27;1.00;;;15.30;67.70;;;;;;5304497;26;20244;-65
2024/04/18 15:22:33;;;;;;;0.90;0.80;;;15.80;68.80;;;;;;5305494;27;20240;-65
2024/04/18 15:24:59;;;;;;;2.20;0.80;;;16.40;67.10;;;;;;5273848;27;20240;-67
2024/04/18 15:27:24;;;;;;;0.70;0.70;;;16.40;65.90;;;;;;5305142;26;20540;-64
2024/04/18 15:29:50;;;;;;;1.00;0.90;;;16.70;66.30;;;;;;5302570;27;20223;-66
2024/04/18 15:32:15;;;;;;;0.70;0.70;;;17.00;64.90;;;;;;5276542;27;20232;-64
2024/04/18 15:34:41;;;;;;;0.80;0.70;;;17.00;66.10;;;;;;5281298;27;20232;-66
2024/04/18 15:37:07;;;;;;;0.90;0.80;;;16.90;65.10;;;;;;5286175;27;20357;-66
2024/04/18 15:39:32;;;;;;;0.90;0.80;;;16.50;65.70;;;;;;5269028;27;20478;-67
2024/04/18 15:41:58;;;;;;;1.10;1.00;;;15.60;65.60;;;;;;5276961;27;20282;-65
2024/04/18 15:44:24;;;;;;;0.90;0.80;;;15.00;66.90;;;;;;5307169;27;20266;-66
2024/04/18 15:46:49;;;;;;;0.80;0.80;;;14.50;67.90;;;;;;5306815;27;20266;-67
2024/04/18 15:49:15;;;;;;;1.40;0.97;;;14.00;69.10;;;;;;5277413;27;20861;-68
2024/04/18 15:51:40;;;;;;;0.97;0.90;;;13.80;71.30;;;;;;5306367;26;20240;-66
2024/04/18 15:54:06;;;;;;;0.97;0.93;;;13.60;71.10;;;;;;5290880;27;20270;-66
2024/04/18 15:56:32;;;;;;;0.70;0.70;;;13.50;71.10;;;;;;5306128;27;20228;-67
2024/04/18 15:58:59;;;;;;;1.20;1.10;;;14.60;70.50;;;;;;5285502;27;20576;-67
2024/04/18 16:01:25;;;;;;;3.40;1.20;;;15.80;69.20;;;;;;5279988;27;20244;-67
2024/04/18 16:03:51;;;;;;;1.00;0.90;;;16.60;67.00;;;;;;5305731;27;20486;-67
2024/04/18 16:06:16;;;;;;;1.00;0.90;;;17.30;66.80;;;;;;5302771;26;20481;-66
2024/04/18 16:08:42;;;;;;;1.00;0.90;;;17.80;67.00;;;;;;5306887;27;20362;-65
2024/04/18 16:11:09;;;;;;;0.73;0.70;;;18.40;64.30;;;;;;5306291;26;20266;-64
2024/04/18 16:13:34;;;;;;;0.70;0.70;;;18.50;63.00;;;;;;5307204;27;20339;-64
2024/04/18 16:16:03;;;;;;;0.90;0.80;;;18.50;62.90;;;;;;5306484;27;20463;-65
2024/04/18 16:18:30;;;;;;;0.90;0.80;;;18.30;63.50;;;;;;5286505;27;20271;-64
2024/04/18 16:20:57;;;;;;;1.07;1.00;;;17.80;62.10;;;;;;5306926;26;20535;-66
2024/04/18 16:23:23;;;;;;;0.83;0.73;;;17.20;63.00;;;;;;5285716;27;20518;-65
2024/04/18 16:25:48;;;;;;;1.10;1.00;;;16.30;63.90;;;;;;5304937;26;20470;-67
2024/04/18 16:28:14;;;;;;;1.20;1.10;;;15.90;65.10;;;;;;5306229;27;20278;-67
2024/04/18 16:30:43;;;;;;;10.80;1.20;;;15.70;65.70;;;;;;5306836;26;20240;-67
2024/04/18 16:33:08;;;;;;;0.90;0.80;;;15.90;66.60;;;;;;5306441;27;20244;-67
2024/04/18 16:35:34;;;;;;;0.90;0.80;;;16.00;65.90;;;;;;5286761;27;20927;-65
2024/04/18 16:37:59;;;;;;;0.90;0.80;;;16.30;65.60;;;;;;5305892;26;20716;-66
2024/04/18 16:40:25;;;;;;;1.20;1.10;;;16.50;65.00;;;;;;5306230;26;20764;-67
2024/04/18 16:42:52;;;;;;;4.17;1.60;;;16.50;65.60;;;;;;5306172;27;20240;-67
2024/04/18 16:45:17;;;;;;;2.10;1.70;;;16.60;64.60;;;;;;5305928;27;20655;-67
2024/04/18 16:47:43;;;;;;;0.90;0.90;;;16.60;65.60;;;;;;5280562;27;20974;-67
2024/04/18 16:50:08;;;;;;;0.90;0.80;;;16.20;65.20;;;;;;5299078;26;20275;-66
2024/04/18 16:52:34;;;;;;;1.67;1.60;;;15.60;66.10;;;;;;5304844;27;20270;-68
2024/04/18 16:54:59;;;;;;;1.07;0.90;;;15.00;66.40;;;;;;5303856;27;20274;-67
2024/04/18 16:57:25;;;;;;;1.90;1.10;;;14.40;67.50;;;;;;5316492;26;20236;-66
2024/04/18 16:59:52;;;;;;;7.13;1.00;;;13.90;68.20;;;;;;5305713;27;20284;-68
2024/04/18 17:02:17;;;;;;;1.20;1.10;;;13.40;69.60;;;;;;5305708;26;20228;-68
2024/04/18 17:04:43;;;;;;;0.87;0.80;;;13.10;69.60;;;;;;5274287;27;20610;-67
2024/04/18 17:07:08;;;;;;;1.00;0.90;;;12.90;70.40;;;;;;5299311;27;20349;-68
2024/04/18 17:09:34;;;;;;;1.00;0.90;;;12.70;70.60;;;;;;5305377;27;20275;-68
2024/04/18 17:12:00;;;;;;;0.83;0.77;;;12.50;71.30;;;;;;5275384;27;20700;-69
2024/04/18 17:14:25;;;;;;;1.00;0.90;;;12.40;72.30;;;;;;5275175;27;20286;-68
2024/04/18 17:16:51;;;;;;;1.10;1.00;;;12.30;71.70;;;;;;5275299;27;20467;-68
2024/04/18 17:19:17;;;;;;;0.93;0.80;;;12.20;72.00;;;;;;5274681;27;20651;-68